createdAt,value
2019-02-28T00:01:11.706Z,99354.05
2019-02-28T00:03:20.259Z,99341.34
2019-02-28T00:05:26.618Z,99343.03
2019-02-28T00:07:33.306Z,99343.98
2019-02-28T00:09:39.959Z,99339.55
2019-02-28T00:11:46.607Z,99340.43
2019-02-28T00:13:55.830Z,99332.55
2019-02-28T00:16:03.254Z,99329.85
2019-02-28T00:18:09.951Z,99325.94
2019-02-28T00:20:16.635Z,99324.16
2019-02-28T00:22:23.309Z,99324.08
2019-02-28T00:24:30.694Z,99309.27
2019-02-28T00:26:37.425Z,99306.17
2019-02-28T00:28:44.075Z,99305.23
2019-02-28T00:30:50.675Z,99307.81
2019-02-28T00:32:59.382Z,99309.58
2019-02-28T00:35:13.001Z,99302.09
2019-02-28T00:37:15.859Z,99306.05
2019-02-28T00:39:22.470Z,99297.70
2019-02-28T00:41:29.132Z,99299.04
2019-02-28T00:43:35.718Z,99283.36
2019-02-28T00:45:42.349Z,99278.47
2019-02-28T00:47:49.018Z,99280.16
2019-02-28T00:49:56.498Z,99270.97
2019-02-28T00:52:03.311Z,99269.67
2019-02-28T00:54:09.968Z,99278.44
2019-02-28T00:56:17.532Z,99265.31
2019-02-28T00:58:28.585Z,99255.68
2019-02-28T01:00:33.272Z,99257.86
2019-02-28T01:02:39.936Z,99251.23
2019-02-28T01:04:46.685Z,99247.75
2019-02-28T01:06:53.359Z,99241.23
2019-02-28T01:09:00.090Z,99241.70
2019-02-28T01:11:06.852Z,99231.64
2019-02-28T01:13:13.517Z,99222.46
2019-02-28T01:15:20.244Z,99226.83
2019-02-28T01:17:27.621Z,99223.68
2019-02-28T01:19:34.289Z,99225.88
2019-02-28T01:21:41.027Z,99215.77
2019-02-28T01:23:47.703Z,99216.63
2019-02-28T01:25:54.365Z,99211.38
2019-02-28T01:28:01.111Z,99208.75
2019-02-28T01:30:11.586Z,99205.63
2019-02-28T01:32:18.188Z,99201.30
2019-02-28T01:34:24.759Z,99199.48
2019-02-28T01:36:32.458Z,99189.41
2019-02-28T01:38:38.925Z,99184.18
2019-02-28T01:40:45.504Z,99183.68
2019-02-28T01:42:54.846Z,99174.52
2019-02-28T01:45:00.344Z,99164.45
2019-02-28T01:47:06.988Z,99159.22
2019-02-28T01:49:13.690Z,99160.94
2019-02-28T01:51:20.354Z,99160.88
2019-02-28T01:53:27.090Z,99144.70
2019-02-28T01:55:33.853Z,99139.88
2019-02-28T01:57:43.868Z,99145.55
2019-02-28T01:59:48.806Z,99136.45
2019-02-28T02:01:55.488Z,99131.64
2019-02-28T02:04:02.004Z,99118.95
2019-02-28T02:06:09.679Z,99117.20
2019-02-28T02:08:16.335Z,99109.32
2019-02-28T02:10:23.470Z,99110.99
2019-02-28T02:12:31.820Z,99107.05
2019-02-28T02:14:38.561Z,99100.00
2019-02-28T02:16:45.174Z,99093.41
2019-02-28T02:18:51.831Z,99092.48
2019-02-28T02:21:00.232Z,99086.33
2019-02-28T02:23:06.970Z,99082.33
2019-02-28T02:25:13.947Z,99077.89
2019-02-28T02:27:20.778Z,99071.30
2019-02-28T02:29:27.537Z,99066.51
2019-02-28T02:31:34.272Z,99066.51
2019-02-28T02:33:40.969Z,99057.72
2019-02-28T02:35:47.634Z,99052.46
2019-02-28T02:37:54.295Z,99049.39
2019-02-28T02:40:00.981Z,99049.39
2019-02-28T02:42:11.362Z,99041.50
2019-02-28T02:44:17.067Z,99047.59
2019-02-28T02:46:23.856Z,99031.41
2019-02-28T02:48:30.516Z,99031.47
2019-02-28T02:50:37.171Z,99030.16
2019-02-28T02:52:44.309Z,99027.54
2019-02-28T02:54:52.243Z,99023.20
2019-02-28T02:56:59.272Z,99011.88
2019-02-28T02:59:05.968Z,99000.11
2019-02-28T03:01:12.703Z,98998.38
2019-02-28T03:03:19.356Z,98999.23
2019-02-28T03:05:26.126Z,98986.55
2019-02-28T03:07:32.838Z,98989.17
2019-02-28T03:09:43.379Z,98973.86
2019-02-28T03:11:47.910Z,98969.53
2019-02-28T03:13:54.576Z,98970.39
2019-02-28T03:16:01.246Z,98961.21
2019-02-28T03:18:07.926Z,98955.13
2019-02-28T03:20:15.746Z,98949.46
2019-02-28T03:22:28.384Z,98942.03
2019-02-28T03:24:30.832Z,98943.41
2019-02-28T03:26:41.356Z,98935.95
2019-02-28T03:28:46.893Z,98929.88
2019-02-28T03:30:53.652Z,98932.09
2019-02-28T03:33:00.515Z,98924.64
2019-02-28T03:35:08.254Z,98915.46
2019-02-28T03:37:15.027Z,98914.56
2019-02-28T03:39:24.553Z,98913.64
2019-02-28T03:41:30.248Z,98904.54
2019-02-28T03:43:42.484Z,98901.02
2019-02-28T03:45:45.381Z,98898.40
2019-02-28T03:47:58.444Z,98893.16
2019-02-28T03:50:00.594Z,98893.14
2019-02-28T03:52:07.311Z,98892.24
2019-02-28T03:54:13.962Z,98886.19
2019-02-28T03:56:20.706Z,98883.14
2019-02-28T03:58:27.446Z,98872.19
2019-02-28T04:00:34.409Z,98870.44
2019-02-28T04:02:41.084Z,98864.81
2019-02-28T04:04:50.150Z,98862.17
2019-02-28T04:06:57.283Z,98856.47
2019-02-28T04:09:08.576Z,98849.91
2019-02-28T04:11:13.526Z,98843.73
2019-02-28T04:13:20.449Z,98839.77
2019-02-28T04:15:27.125Z,98834.94
2019-02-28T04:17:33.880Z,98836.66
2019-02-28T04:19:40.519Z,98829.17
2019-02-28T04:21:47.858Z,98819.52
2019-02-28T04:23:54.577Z,98818.98
2019-02-28T04:26:01.318Z,98810.63
2019-02-28T04:28:09.001Z,98819.70
2019-02-28T04:30:16.683Z,98805.19
2019-02-28T04:32:27.566Z,98808.56
2019-02-28T04:34:31.806Z,98806.28
2019-02-28T04:36:38.462Z,98803.10
2019-02-28T04:38:45.126Z,98806.94
2019-02-28T04:40:51.744Z,98805.55
2019-02-28T04:42:58.339Z,98795.00
2019-02-28T04:45:07.905Z,98787.08
2019-02-28T04:47:14.669Z,98785.77
2019-02-28T04:49:22.681Z,98777.83
2019-02-28T04:51:29.612Z,98768.62
2019-02-28T04:53:36.358Z,98769.00
2019-02-28T04:55:43.023Z,98772.46
2019-02-28T04:57:51.595Z,98758.87
2019-02-28T04:59:57.993Z,98755.77
2019-02-28T05:02:04.667Z,98762.70
2019-02-28T05:04:11.345Z,98757.42
2019-02-28T05:06:18.351Z,98750.39
2019-02-28T05:08:26.445Z,98756.39
2019-02-28T05:10:33.190Z,98747.16
2019-02-28T05:12:40.963Z,98750.97
2019-02-28T05:14:47.981Z,98738.70
2019-02-28T05:16:54.709Z,98739.01
2019-02-28T05:19:01.534Z,98739.78
2019-02-28T05:21:08.872Z,98737.48
2019-02-28T05:23:15.815Z,98733.48
2019-02-28T05:25:22.576Z,98730.80
2019-02-28T05:27:34.851Z,98723.34
2019-02-28T05:29:37.607Z,98718.06
2019-02-28T05:31:44.354Z,98715.00
2019-02-28T05:33:52.022Z,98714.13
2019-02-28T05:36:00.291Z,98719.39
2019-02-28T05:38:07.070Z,98710.30
2019-02-28T05:40:15.649Z,98716.45
2019-02-28T05:42:23.353Z,98706.52
2019-02-28T05:44:30.794Z,98703.48
2019-02-28T05:46:37.470Z,98696.96
2019-02-28T05:48:44.231Z,98701.33
2019-02-28T05:50:53.327Z,98695.68
2019-02-28T05:53:00.298Z,98684.00
2019-02-28T05:55:09.554Z,98673.19
2019-02-28T05:57:16.240Z,98675.47
2019-02-28T05:59:26.161Z,98665.59
2019-02-28T06:01:31.332Z,98666.52
2019-02-28T06:03:38.024Z,98668.52
2019-02-28T06:05:46.422Z,98662.13
2019-02-28T06:07:53.097Z,98662.42
2019-02-28T06:09:59.869Z,98650.33
2019-02-28T06:12:09.328Z,98645.94
2019-02-28T06:14:15.067Z,98643.71
2019-02-28T06:16:21.759Z,98645.47
2019-02-28T06:18:32.669Z,98629.84
2019-02-28T06:20:36.779Z,98625.18
2019-02-28T06:22:43.462Z,98623.09
2019-02-28T06:24:50.522Z,98616.41
2019-02-28T06:26:57.249Z,98609.20
2019-02-28T06:29:04.976Z,98617.69
2019-02-28T06:31:14.334Z,98619.50
2019-02-28T06:33:21.288Z,98620.42
2019-02-28T06:35:28.205Z,98620.02
2019-02-28T06:37:35.414Z,98615.20
2019-02-28T06:39:43.238Z,98614.35
2019-02-28T06:41:49.928Z,98607.78
2019-02-28T06:43:57.679Z,98601.66
2019-02-28T06:46:04.398Z,98583.43
2019-02-28T06:48:11.012Z,98577.20
2019-02-28T06:50:18.178Z,98579.52
2019-02-28T06:52:25.306Z,98562.34
2019-02-28T06:54:32.789Z,98556.03
2019-02-28T06:56:39.522Z,98551.00
2019-02-28T06:58:46.123Z,98540.73
2019-02-28T07:00:52.792Z,98547.95
2019-02-28T07:03:03.254Z,98551.36
2019-02-28T07:05:08.286Z,98551.22
2019-02-28T07:07:15.024Z,98544.69
2019-02-28T07:09:21.773Z,98531.69
2019-02-28T07:11:28.447Z,98527.79
2019-02-28T07:13:39.040Z,98518.84
2019-02-28T07:15:43.491Z,98522.39
2019-02-28T07:17:50.159Z,98506.25
2019-02-28T07:20:01.365Z,98498.93
2019-02-28T07:22:05.139Z,98486.50
2019-02-28T07:24:11.808Z,98488.30
2019-02-28T07:26:18.902Z,98484.86
2019-02-28T07:28:26.254Z,98474.98
2019-02-28T07:30:32.918Z,98480.78
2019-02-28T07:32:39.615Z,98477.08
2019-02-28T07:34:46.286Z,98482.09
2019-02-28T07:36:52.884Z,98480.67
2019-02-28T07:39:01.322Z,98471.47
2019-02-28T07:41:09.534Z,98456.95
2019-02-28T07:43:16.215Z,98444.61
2019-02-28T07:45:22.912Z,98437.29
2019-02-28T07:47:29.575Z,98425.02
2019-02-28T07:49:37.014Z,98428.69
2019-02-28T07:51:43.705Z,98430.77
2019-02-28T07:53:50.457Z,98431.99
2019-02-28T07:55:57.114Z,98437.14
2019-02-28T07:58:03.884Z,98444.47
2019-02-28T08:00:25.024Z,98440.97
2019-02-28T08:02:31.694Z,98444.70
2019-02-28T08:04:38.472Z,98434.09
2019-02-28T08:06:45.134Z,98427.62
2019-02-28T08:08:52.885Z,98406.29
2019-02-28T08:10:59.741Z,98397.97
2019-02-28T08:13:06.538Z,98410.59
2019-02-28T08:15:30.722Z,98391.80
2019-02-28T08:17:40.647Z,98386.68
2019-02-28T08:19:45.790Z,98380.40
2019-02-28T08:21:52.490Z,98382.27
2019-02-28T08:23:59.194Z,98397.31
2019-02-28T08:26:05.863Z,98394.25
2019-02-28T08:28:12.523Z,98402.25
2019-02-28T08:30:28.396Z,98414.27
2019-02-28T08:32:35.090Z,98416.84
2019-02-28T08:34:41.754Z,98417.80
2019-02-28T08:36:48.437Z,98405.67
2019-02-28T08:38:55.115Z,98415.53
2019-02-28T08:41:01.770Z,98414.83
2019-02-28T08:43:10.524Z,98409.47
2019-02-28T08:45:17.315Z,98394.23
2019-02-28T08:47:23.982Z,98418.70
2019-02-28T08:49:30.740Z,98420.63
2019-02-28T08:51:37.413Z,98421.45
2019-02-28T08:53:44.003Z,98415.36
2019-02-28T08:55:50.692Z,98417.98
2019-02-28T08:58:04.330Z,98407.06
2019-02-28T09:00:18.155Z,98418.06
2019-02-28T09:02:24.857Z,98409.05
2019-02-28T09:04:40.782Z,98402.73
2019-02-28T09:06:41.011Z,98388.70
2019-02-28T09:08:48.340Z,98389.23
2019-02-28T09:10:55.910Z,98381.23
2019-02-28T09:13:07.748Z,98371.28
2019-02-28T09:15:14.950Z,98374.71
2019-02-28T09:17:21.634Z,98363.47
2019-02-28T09:19:28.286Z,98367.23
2019-02-28T09:21:34.979Z,98351.12
2019-02-28T09:23:41.669Z,98347.44
2019-02-28T09:25:48.397Z,98355.48
2019-02-28T09:27:55.105Z,98354.30
2019-02-28T09:30:01.772Z,98368.16
2019-02-28T09:32:10.248Z,98375.11
2019-02-28T09:34:16.811Z,98376.19
2019-02-28T09:36:23.502Z,98372.05
2019-02-28T09:38:30.170Z,98366.27
2019-02-28T09:40:36.854Z,98364.44
2019-02-28T09:42:44.549Z,98359.89
2019-02-28T09:44:52.271Z,98355.80
2019-02-28T09:46:58.973Z,98354.75
2019-02-28T09:49:05.854Z,98345.09
2019-02-28T09:51:12.577Z,98339.80
2019-02-28T09:53:19.204Z,98339.69
2019-02-28T09:55:25.951Z,98340.70
2019-02-28T09:57:32.614Z,98339.77
2019-02-28T09:59:39.315Z,98342.63
2019-02-28T10:01:46.057Z,98335.41
2019-02-28T10:03:55.498Z,98334.44
2019-02-28T10:06:02.129Z,98337.51
2019-02-28T10:08:08.792Z,98329.48
2019-02-28T10:10:29.930Z,98325.13
2019-02-28T10:12:39.403Z,98332.37
2019-02-28T10:14:44.998Z,98353.81
2019-02-28T10:16:52.646Z,98353.54
2019-02-28T10:19:00.104Z,98354.23
2019-02-28T10:21:06.777Z,98354.23
2019-02-28T10:23:13.436Z,98344.33
2019-02-28T10:25:20.130Z,98342.91
2019-02-28T10:27:27.798Z,98344.83
2019-02-28T10:29:34.480Z,98351.73
2019-02-28T10:31:41.174Z,98353.64
2019-02-28T10:33:49.527Z,98346.61
2019-02-28T10:35:56.239Z,98351.61
2019-02-28T10:38:02.944Z,98358.77
2019-02-28T10:40:17.939Z,98358.99
2019-02-28T10:42:26.415Z,98360.18
2019-02-28T10:44:33.109Z,98351.89
2019-02-28T10:46:39.795Z,98347.23
2019-02-28T10:48:50.817Z,98346.30
2019-02-28T10:50:54.852Z,98348.24
2019-02-28T10:53:05.630Z,98345.43
2019-02-28T10:55:13.475Z,98349.20
2019-02-28T10:57:20.164Z,98346.55
2019-02-28T10:59:26.922Z,98348.05
2019-02-28T11:01:33.598Z,98357.58
2019-02-28T11:03:40.360Z,98354.28
2019-02-28T11:05:47.297Z,98356.47
2019-02-28T11:07:54.227Z,98351.00
2019-02-28T11:10:02.100Z,98342.89
2019-02-28T11:12:09.179Z,98361.38
2019-02-28T11:14:16.984Z,98367.89
2019-02-28T11:16:24.471Z,98361.41
2019-02-28T11:18:32.137Z,98377.70
2019-02-28T11:20:40.612Z,98379.50
2019-02-28T11:22:47.298Z,98376.52
2019-02-28T11:24:54.239Z,98370.91
2019-02-28T11:27:00.907Z,98367.47
2019-02-28T11:29:07.688Z,98377.08
2019-02-28T11:31:16.377Z,98368.65
2019-02-28T11:33:23.420Z,98375.34
2019-02-28T11:35:30.709Z,98365.89
2019-02-28T11:37:37.681Z,98364.38
2019-02-28T11:39:44.335Z,98374.15
2019-02-28T11:41:52.654Z,98373.39
2019-02-28T11:43:59.443Z,98376.87
2019-02-28T11:46:07.106Z,98361.38
2019-02-28T11:48:20.148Z,98365.83
2019-02-28T11:50:26.082Z,98377.92
2019-02-28T11:52:32.745Z,98378.70
2019-02-28T11:54:39.455Z,98374.64
2019-02-28T11:56:46.124Z,98373.30
2019-02-28T11:58:52.858Z,98383.76
2019-02-28T12:00:59.559Z,98376.25
2019-02-28T12:03:06.506Z,98377.86
2019-02-28T12:05:15.690Z,98365.54
2019-02-28T12:07:21.647Z,98388.30
2019-02-28T12:09:28.318Z,98391.57
2019-02-28T12:11:36.484Z,98384.89
2019-02-28T12:13:43.385Z,98380.37
2019-02-28T12:15:50.062Z,98379.67
2019-02-28T12:17:56.725Z,98373.09
2019-02-28T12:20:03.939Z,98380.38
2019-02-28T12:22:12.102Z,98368.61
2019-02-28T12:24:19.090Z,98366.86
2019-02-28T12:26:25.854Z,98364.80
2019-02-28T12:28:35.266Z,98358.02
2019-02-28T12:30:41.078Z,98365.16
2019-02-28T12:32:47.769Z,98368.70
2019-02-28T12:34:54.385Z,98375.77
2019-02-28T12:37:01.042Z,98380.34
2019-02-28T12:39:09.046Z,98383.05
2019-02-28T12:41:15.729Z,98387.51
2019-02-28T12:43:22.388Z,98392.52
2019-02-28T12:45:32.825Z,98381.77
2019-02-28T12:47:41.558Z,98392.89
2019-02-28T12:49:47.873Z,98406.73
2019-02-28T12:51:54.583Z,98401.03
2019-02-28T12:54:01.240Z,98408.93
2019-02-28T12:56:07.976Z,98397.99
2019-02-28T12:58:14.680Z,98386.96
2019-02-28T13:00:28.334Z,98402.53
2019-02-28T13:02:35.011Z,98414.53
2019-02-28T13:04:41.777Z,98408.19
2019-02-28T13:06:48.516Z,98396.30
2019-02-28T13:08:55.205Z,98402.30
2019-02-28T13:11:04.480Z,98394.28
2019-02-28T13:13:10.250Z,98399.17
2019-02-28T13:15:18.992Z,98401.01
2019-02-28T13:17:28.322Z,98400.62
2019-02-28T13:19:35.057Z,98405.16
2019-02-28T13:21:43.661Z,98403.86
2019-02-28T13:23:50.101Z,98395.92
2019-02-28T13:25:59.974Z,98400.28
2019-02-28T13:28:06.338Z,98416.90
2019-02-28T13:30:22.564Z,98412.83
2019-02-28T13:32:29.222Z,98411.48
2019-02-28T13:34:35.890Z,98413.16
2019-02-28T13:36:42.584Z,98413.59
2019-02-28T13:38:49.515Z,98413.14
2019-02-28T13:40:57.703Z,98416.70
2019-02-28T13:43:04.507Z,98425.62
2019-02-28T13:45:22.188Z,98424.41
2019-02-28T13:47:23.009Z,98424.80
2019-02-28T13:49:29.697Z,98425.31
2019-02-28T13:51:40.442Z,98427.19
2019-02-28T13:53:44.742Z,98437.39
2019-02-28T13:55:53.002Z,98446.50
2019-02-28T13:57:59.831Z,98445.50
2019-02-28T14:00:20.766Z,98443.39
2019-02-28T14:02:29.776Z,98441.45
2019-02-28T14:04:35.911Z,98436.31
2019-02-28T14:06:43.066Z,98435.89
2019-02-28T14:08:49.828Z,98444.69
2019-02-28T14:10:56.579Z,98445.19
2019-02-28T14:13:04.026Z,98452.69
2019-02-28T14:15:17.862Z,98449.22
2019-02-28T14:17:24.591Z,98459.34
2019-02-28T14:19:31.342Z,98453.06
2019-02-28T14:21:39.644Z,98456.94
2019-02-28T14:23:46.390Z,98460.45
2019-02-28T14:25:54.119Z,98468.06
2019-02-28T14:28:01.472Z,98465.22
2019-02-28T14:30:19.689Z,98471.35
2019-02-28T14:32:26.454Z,98472.05
2019-02-28T14:34:33.163Z,98473.37
2019-02-28T14:36:41.726Z,98482.16
2019-02-28T14:38:49.947Z,98475.86
2019-02-28T14:40:56.618Z,98484.36
2019-02-28T14:43:03.288Z,98479.27
2019-02-28T14:45:22.940Z,98479.39
2019-02-28T14:47:29.729Z,98478.64
2019-02-28T14:49:36.386Z,98483.15
2019-02-28T14:51:43.048Z,98483.17
2019-02-28T14:53:50.097Z,98487.61
2019-02-28T14:55:58.373Z,98491.64
2019-02-28T14:58:05.155Z,98488.17
2019-02-28T15:00:22.588Z,98484.34
2019-02-28T15:02:29.260Z,98479.58
2019-02-28T15:04:35.926Z,98485.36
2019-02-28T15:06:42.636Z,98490.27
2019-02-28T15:08:50.970Z,98497.34
2019-02-28T15:10:57.784Z,98501.33
2019-02-28T15:13:05.153Z,98508.41
2019-02-28T15:15:18.086Z,98505.36
2019-02-28T15:17:24.223Z,98506.73
2019-02-28T15:19:30.977Z,98512.45
2019-02-28T15:21:42.367Z,98512.48
2019-02-28T15:23:46.070Z,98513.41
2019-02-28T15:25:54.905Z,98519.23
2019-02-28T15:28:01.706Z,98526.77
2019-02-28T15:30:17.944Z,98529.89
2019-02-28T15:32:25.656Z,98538.32
2019-02-28T15:34:32.380Z,98546.69
2019-02-28T15:36:39.048Z,98540.59
2019-02-28T15:38:45.739Z,98543.77
2019-02-28T15:40:52.419Z,98532.39
2019-02-28T15:42:59.158Z,98543.86
2019-02-28T15:45:09.227Z,98547.88
2019-02-28T15:47:15.951Z,98552.31
2019-02-28T15:49:24.487Z,98553.27
2019-02-28T15:51:31.174Z,98549.84
2019-02-28T15:53:37.903Z,98550.75
2019-02-28T15:55:44.646Z,98554.36
2019-02-28T15:57:51.411Z,98557.91
2019-02-28T15:59:58.655Z,98565.02
2019-02-28T16:02:06.306Z,98568.60
2019-02-28T16:04:13.779Z,98569.56
2019-02-28T16:06:20.662Z,98568.77
2019-02-28T16:08:28.818Z,98571.02
2019-02-28T16:10:38.210Z,98577.19
2019-02-28T16:12:46.587Z,98582.08
2019-02-28T16:14:53.312Z,98589.09
2019-02-28T16:17:03.582Z,98600.56
2019-02-28T16:19:10.394Z,98600.14
2019-02-28T16:21:17.053Z,98599.27
2019-02-28T16:23:27.570Z,98603.23
2019-02-28T16:25:39.852Z,98606.80
2019-02-28T16:27:46.582Z,98617.33
2019-02-28T16:29:55.809Z,98616.03
2019-02-28T16:32:01.642Z,98625.30
2019-02-28T16:34:08.540Z,98624.88
2019-02-28T16:36:15.945Z,98624.93
2019-02-28T16:38:22.725Z,98631.52
2019-02-28T16:40:32.846Z,98633.71
2019-02-28T16:42:39.539Z,98634.16
2019-02-28T16:44:46.371Z,98632.41
2019-02-28T16:46:53.082Z,98636.41
2019-02-28T16:48:59.772Z,98635.54
2019-02-28T16:51:06.499Z,98643.91
2019-02-28T16:53:16.147Z,98645.67
2019-02-28T16:55:21.563Z,98656.22
2019-02-28T16:57:28.294Z,98660.61
2019-02-28T16:59:34.959Z,98664.98
2019-02-28T17:01:41.660Z,98669.41
2019-02-28T17:03:48.303Z,98668.97
2019-02-28T17:05:55.061Z,98665.91
2019-02-28T17:08:01.824Z,98666.81
2019-02-28T17:10:16.488Z,98672.94
2019-02-28T17:12:27.228Z,98671.22
2019-02-28T17:14:33.181Z,98672.96
2019-02-28T17:16:41.493Z,98671.64
2019-02-28T17:18:48.241Z,98672.95
2019-02-28T17:20:55.111Z,98684.80
2019-02-28T17:23:02.192Z,98674.29
2019-02-28T17:25:09.298Z,98676.04
2019-02-28T17:27:27.450Z,98673.86
2019-02-28T17:29:38.549Z,98679.97
2019-02-28T17:31:48.213Z,98686.09
2019-02-28T17:33:54.839Z,98689.61
2019-02-28T17:36:02.603Z,98694.88
2019-02-28T17:38:09.333Z,98690.92
2019-02-28T17:40:18.597Z,98697.92
2019-02-28T17:42:25.274Z,98698.35
2019-02-28T17:44:44.866Z,98700.53
2019-02-28T17:47:00.586Z,98697.05
2019-02-28T17:49:31.162Z,98697.03
2019-02-28T17:51:45.288Z,98696.17
2019-02-28T17:54:23.188Z,98701.86
2019-02-28T17:57:07.587Z,98702.28
2019-02-28T17:59:27.594Z,98710.16
2019-02-28T18:01:44.086Z,98713.22
2019-02-28T18:04:16.293Z,98710.59
2019-02-28T18:06:55.600Z,98706.65
2019-02-28T18:09:17.923Z,98711.03
2019-02-28T18:12:01.545Z,98707.52
2019-02-28T18:14:27.842Z,98716.28
2019-02-28T18:16:54.563Z,98712.34
2019-02-28T18:19:18.082Z,98703.16
2019-02-28T18:21:47.299Z,98713.67
2019-02-28T18:24:20.710Z,98714.09
2019-02-28T18:27:04.964Z,98717.16
2019-02-28T18:29:18.710Z,98721.06
2019-02-28T18:31:25.674Z,98712.75
2019-02-28T18:33:33.030Z,98716.25
2019-02-28T18:35:39.689Z,98718.39
2019-02-28T18:37:46.383Z,98718.83
2019-02-28T18:39:53.133Z,98719.27
2019-02-28T18:41:59.868Z,98732.36
2019-02-28T18:44:07.708Z,98728.91
2019-02-28T18:46:15.498Z,98742.03
2019-02-28T18:48:23.705Z,98735.88
2019-02-28T18:50:30.459Z,98741.57
2019-02-28T18:52:37.122Z,98742.91
2019-02-28T18:54:43.853Z,98745.55
2019-02-28T18:56:50.746Z,98760.40
2019-02-28T18:58:59.030Z,98764.80
2019-02-28T19:01:06.163Z,98754.30
2019-02-28T19:03:13.251Z,98762.59
2019-02-28T19:05:19.916Z,98762.58
2019-02-28T19:07:26.587Z,98766.08
2019-02-28T19:09:33.303Z,98780.92
2019-02-28T19:11:40.028Z,98791.83
2019-02-28T19:13:46.688Z,98812.37
2019-02-28T19:15:53.434Z,98804.03
2019-02-28T19:18:00.191Z,98808.74
2019-02-28T19:20:10.448Z,98823.98
2019-02-28T19:22:17.133Z,98816.95
2019-02-28T19:24:23.787Z,98831.39
2019-02-28T19:26:31.492Z,98830.04
2019-02-28T19:28:38.261Z,98836.12
2019-02-28T19:30:44.913Z,98842.22
2019-02-28T19:32:51.710Z,98836.05
2019-02-28T19:34:58.501Z,98839.48
2019-02-28T19:37:05.149Z,98844.21
2019-02-28T19:39:11.817Z,98845.47
2019-02-28T19:41:18.556Z,98844.52
2019-02-28T19:43:25.214Z,98850.59
2019-02-28T19:45:42.139Z,98852.67
2019-02-28T19:47:49.856Z,98856.11
2019-02-28T19:49:56.613Z,98857.80
2019-02-28T19:52:03.414Z,98857.80
2019-02-28T19:54:10.089Z,98856.03
2019-02-28T19:56:16.815Z,98857.33
2019-02-28T19:58:24.946Z,98855.55
2019-02-28T20:00:31.619Z,98854.66
2019-02-28T20:02:39.439Z,98848.53
2019-02-28T20:04:46.103Z,98853.77
2019-02-28T20:06:52.898Z,98850.69
2019-02-28T20:08:59.818Z,98861.15
2019-02-28T20:11:08.417Z,98853.70
2019-02-28T20:13:15.222Z,98858.05
2019-02-28T20:15:24.522Z,98856.28
2019-02-28T20:17:31.168Z,98859.78
2019-02-28T20:19:37.838Z,98868.92
2019-02-28T20:21:46.138Z,98873.73
2019-02-28T20:23:52.784Z,98868.47
2019-02-28T20:25:59.637Z,98874.16
2019-02-28T20:28:07.583Z,98874.14
2019-02-28T20:30:23.365Z,98869.33
2019-02-28T20:32:30.145Z,98851.45
2019-02-28T20:34:36.884Z,98855.36
2019-02-28T20:36:45.556Z,98861.01
2019-02-28T20:38:53.677Z,98860.55
2019-02-28T20:41:00.431Z,98862.20
2019-02-28T20:43:07.569Z,98870.91
2019-02-28T20:45:14.463Z,98874.29
2019-02-28T20:47:22.308Z,98878.17
2019-02-28T20:49:29.080Z,98876.28
2019-02-28T20:51:39.880Z,98878.81
2019-02-28T20:53:48.053Z,98878.70
2019-02-28T20:55:54.774Z,98885.14
2019-02-28T20:58:01.531Z,98886.36
2019-02-28T21:00:17.201Z,98882.82
2019-02-28T21:02:25.878Z,98887.52
2019-02-28T21:04:32.572Z,98885.31
2019-02-28T21:06:40.710Z,98887.92
2019-02-28T21:08:48.895Z,98885.21
2019-02-28T21:10:55.655Z,98886.91
2019-02-28T21:13:02.310Z,98893.50
2019-02-28T21:15:12.211Z,98892.94
2019-02-28T21:17:18.883Z,98896.02
2019-02-28T21:19:25.604Z,98892.92
2019-02-28T21:21:33.368Z,98891.53
2019-02-28T21:23:40.050Z,98897.50
2019-02-28T21:25:46.723Z,98894.44
2019-02-28T21:27:53.444Z,98894.90
2019-02-28T21:30:00.350Z,98885.19
2019-02-28T21:32:08.662Z,98888.14
2019-02-28T21:34:15.384Z,98892.89
2019-02-28T21:36:22.139Z,98887.21
2019-02-28T21:38:29.961Z,98891.92
2019-02-28T21:40:36.837Z,98886.24
2019-02-28T21:42:43.933Z,98892.72
2019-02-28T21:44:50.608Z,98881.76
2019-02-28T21:46:57.367Z,98889.56
2019-02-28T21:49:04.257Z,98885.70
2019-02-28T21:51:10.962Z,98887.89
2019-02-28T21:53:17.727Z,98883.04
2019-02-28T21:55:24.506Z,98879.45
2019-02-28T21:57:31.156Z,98887.26
2019-02-28T21:59:39.465Z,98881.98
2019-02-28T22:01:46.130Z,98889.30
2019-02-28T22:03:52.860Z,98889.66
2019-02-28T22:05:59.576Z,98895.70
2019-02-28T22:08:06.284Z,98885.63
2019-02-28T22:10:16.867Z,98890.39
2019-02-28T22:12:23.515Z,98885.20
2019-02-28T22:14:30.217Z,98892.09
2019-02-28T22:16:36.992Z,98886.41
2019-02-28T22:18:43.638Z,98878.95
2019-02-28T22:20:50.640Z,98879.49
2019-02-28T22:22:57.307Z,98875.91
2019-02-28T22:25:04.662Z,98877.67
2019-02-28T22:27:11.338Z,98880.70
2019-02-28T22:29:17.989Z,98881.13
2019-02-28T22:31:29.069Z,98881.56
2019-02-28T22:33:43.940Z,98881.56
2019-02-28T22:35:57.986Z,98885.83
2019-02-28T22:38:04.633Z,98884.44
2019-02-28T22:40:12.396Z,98889.33
2019-02-28T22:42:22.459Z,98886.69
2019-02-28T22:44:27.451Z,98893.17
2019-02-28T22:46:34.202Z,98899.27
2019-02-28T22:48:40.853Z,98902.30
2019-02-28T22:50:47.580Z,98904.00
2019-02-28T22:52:55.242Z,98904.84
2019-02-28T22:55:03.135Z,98909.16
2019-02-28T22:57:09.835Z,98912.58
2019-02-28T22:59:16.536Z,98909.88
2019-02-28T23:01:25.889Z,98911.59
2019-02-28T23:03:34.698Z,98915.55
2019-02-28T23:05:41.396Z,98917.73
2019-02-28T23:07:48.048Z,98915.05
2019-02-28T23:09:54.783Z,98914.56
2019-02-28T23:12:01.541Z,98915.83
2019-02-28T23:14:08.202Z,98917.50
2019-02-28T23:16:14.854Z,98910.55
2019-02-28T23:18:21.545Z,98917.95
2019-02-28T23:20:28.200Z,98920.48
2019-02-28T23:22:34.870Z,98917.03
2019-02-28T23:24:41.547Z,98916.19
2019-02-28T23:27:17.007Z,98917.95
2019-02-28T23:29:25.267Z,98913.87
2019-02-28T23:31:47.973Z,98919.08
2019-02-28T23:34:01.329Z,98921.69
2019-02-28T23:36:06.533Z,98916.80
2019-02-28T23:38:13.214Z,98925.92
2019-02-28T23:40:19.946Z,98921.09
2019-02-28T23:42:26.608Z,98929.73
2019-02-28T23:44:33.295Z,98926.31
2019-02-28T23:46:39.877Z,98929.73
2019-02-28T23:48:46.540Z,98936.67
2019-02-28T23:50:53.292Z,98931.41
2019-02-28T23:53:00.031Z,98929.66
2019-02-28T23:55:09.284Z,98936.55
2019-02-28T23:57:16.048Z,98939.48
2019-02-28T23:59:22.709Z,98947.19
